Time;durP1;ratioP1;P1;durP2;ratioP2;P2;SDS_P1;SDS_P2;PMS_P1;PMS_P2;Temp;Humidity;BMP_temperature;BMP_pressure;BME280_temperature;BME280_humidity;BME280_pressure;Samples;Min_cycle;Max_cycle;Signal;HPM_P1;HPM_P2
2023/12/14 00:00:08;;;;;;;87.13;17.27;;;;;;;;;;6327917;22;20011;-74
2023/12/14 00:02:33;;;;;;;115.13;21.42;;;;;;;;;;6326305;22;20015;-74
2023/12/14 00:04:59;;;;;;;92.03;19.30;;;;;;;;;;6339317;22;20028;-74
2023/12/14 00:07:24;;;;;;;78.30;17.80;;;;;;;;;;6391278;22;20002;-73
2023/12/14 00:09:49;;;;;;;78.82;16.60;;;;;;;;;;6364498;22;20085;-73
2023/12/14 00:12:15;;;;;;;91.32;18.77;;;;;;;;;;6391307;22;20014;-73
2023/12/14 00:14:40;;;;;;;84.63;16.95;;;;;;;;;;6391753;22;20494;-73
2023/12/14 00:17:06;;;;;;;73.45;15.15;;;;;;;;;;6392253;22;20002;-74
2023/12/14 00:19:31;;;;;;;89.82;18.73;;;;;;;;;;6391542;22;20036;-72
2023/12/14 00:21:56;;;;;;;63.17;14.02;;;;;;;;;;6392738;22;20001;-73
2023/12/14 00:24:22;;;;;;;72.07;15.70;;;;;;;;;;6389590;22;20062;-74
2023/12/14 00:26:47;;;;;;;79.07;17.27;;;;;;;;;;6391361;22;20014;-73
2023/12/14 00:29:13;;;;;;;93.45;19.10;;;;;;;;;;6363713;22;20014;-74
2023/12/14 00:31:38;;;;;;;83.75;17.60;;;;;;;;;;6391209;22;20018;-73
2023/12/14 00:34:03;;;;;;;57.50;13.80;;;;;;;;;;6391479;22;20668;-73
2023/12/14 00:36:29;;;;;;;89.43;18.65;;;;;;;;;;6363413;22;20054;-73
2023/12/14 00:38:55;;;;;;;111.63;23.20;;;;;;;;;;6389858;22;20016;-74
2023/12/14 00:41:20;;;;;;;89.43;18.15;;;;;;;;;;6390956;22;20405;-73
2023/12/14 00:43:46;;;;;;;85.15;17.50;;;;;;;;;;6389774;22;20020;-73
2023/12/14 00:46:11;;;;;;;80.88;17.48;;;;;;;;;;6363173;22;20021;-74
2023/12/14 00:48:37;;;;;;;93.45;17.70;;;;;;;;;;6392295;22;19994;-73
2023/12/14 00:51:02;;;;;;;82.18;16.77;;;;;;;;;;6390339;22;20037;-74
2023/12/14 00:53:27;;;;;;;59.53;14.48;;;;;;;;;;6392620;22;20084;-73
2023/12/14 00:55:53;;;;;;;71.88;16.10;;;;;;;;;;6392938;22;20010;-73
2023/12/14 00:58:18;;;;;;;58.28;14.50;;;;;;;;;;6398835;22;20397;-73
2023/12/14 01:00:43;;;;;;;77.25;17.95;;;;;;;;;;6409447;22;19990;-73
2023/12/14 01:03:09;;;;;;;66.85;14.77;;;;;;;;;;6404136;22;20020;-73
2023/12/14 01:05:34;;;;;;;71.30;17.40;;;;;;;;;;6365570;22;20469;-74
2023/12/14 01:07:59;;;;;;;54.17;13.93;;;;;;;;;;6363802;22;20483;-73
2023/12/14 01:10:26;;;;;;;53.00;12.43;;;;;;;;;;6338148;22;20025;-73
2023/12/14 01:12:51;;;;;;;57.80;13.68;;;;;;;;;;6392595;22;20004;-73
2023/12/14 01:15:17;;;;;;;48.92;11.27;;;;;;;;;;6391153;22;20032;-73
2023/12/14 01:17:42;;;;;;;53.00;14.73;;;;;;;;;;6363116;22;20006;-73
2023/12/14 01:20:08;;;;;;;56.53;11.55;;;;;;;;;;6391274;22;20006;-74
2023/12/14 01:22:33;;;;;;;76.10;16.15;;;;;;;;;;6391619;22;20033;-74
2023/12/14 01:24:59;;;;;;;62.63;14.35;;;;;;;;;;6391606;22;20076;-74
2023/12/14 01:27:25;;;;;;;65.80;16.88;;;;;;;;;;6363664;22;20017;-74
2023/12/14 01:29:50;;;;;;;67.40;15.95;;;;;;;;;;6391081;22;20018;-73
2023/12/14 01:32:15;;;;;;;77.15;18.60;;;;;;;;;;6361629;22;20383;-73
2023/12/14 01:34:41;;;;;;;64.63;14.68;;;;;;;;;;6362904;22;20026;-73
2023/12/14 01:37:06;;;;;;;66.47;16.73;;;;;;;;;;6391009;22;20002;-74
2023/12/14 01:39:32;;;;;;;49.75;13.18;;;;;;;;;;6391487;22;19998;-74
2023/12/14 01:41:58;;;;;;;58.97;13.82;;;;;;;;;;6362399;22;20006;-73
2023/12/14 01:44:23;;;;;;;64.25;16.45;;;;;;;;;;6362433;22;20016;-73
2023/12/14 01:46:49;;;;;;;84.50;18.27;;;;;;;;;;6391478;22;20052;-73
2023/12/14 01:49:14;;;;;;;83.63;18.77;;;;;;;;;;6388875;22;20021;-73
2023/12/14 01:51:40;;;;;;;57.97;14.30;;;;;;;;;;6363735;22;20020;-74
2023/12/14 01:54:05;;;;;;;60.08;14.30;;;;;;;;;;6390095;22;20369;-73
2023/12/14 01:56:30;;;;;;;77.47;16.10;;;;;;;;;;6390891;22;20010;-73
2023/12/14 01:58:56;;;;;;;61.85;14.13;;;;;;;;;;6390695;22;20490;-73
2023/12/14 02:01:30;;;;;;;58.38;14.05;;;;;;;;;;6390987;22;20010;-73
2023/12/14 02:03:55;;;;;;;64.13;14.80;;;;;;;;;;6392858;22;20520;-74
2023/12/14 02:06:21;;;;;;;55.65;13.27;;;;;;;;;;6393469;22;20052;-74
2023/12/14 02:08:46;;;;;;;65.03;15.55;;;;;;;;;;6364481;22;20018;-73
2023/12/14 02:11:12;;;;;;;61.50;13.68;;;;;;;;;;6393138;22;20018;-73
2023/12/14 02:13:37;;;;;;;61.20;15.57;;;;;;;;;;6365810;22;20006;-73
2023/12/14 02:16:03;;;;;;;65.03;15.57;;;;;;;;;;6395170;22;20102;-74
2023/12/14 02:18:29;;;;;;;53.90;14.05;;;;;;;;;;6373444;22;20034;-73
2023/12/14 02:20:54;;;;;;;68.13;18.65;;;;;;;;;;6379005;22;20002;-73
2023/12/14 02:23:19;;;;;;;94.82;23.40;;;;;;;;;;6369682;22;20020;-74
2023/12/14 02:25:44;;;;;;;67.22;19.08;;;;;;;;;;6392531;22;20029;-73
2023/12/14 02:28:10;;;;;;;63.88;17.55;;;;;;;;;;6393106;22;19994;-74
2023/12/14 02:30:35;;;;;;;77.18;20.75;;;;;;;;;;6363903;22;20082;-73
2023/12/14 02:33:01;;;;;;;60.13;16.88;;;;;;;;;;6364909;22;20013;-74
2023/12/14 02:35:26;;;;;;;72.22;17.23;;;;;;;;;;6392969;22;20090;-73
2023/12/14 02:37:51;;;;;;;67.43;18.33;;;;;;;;;;6393524;22;20006;-73
2023/12/14 02:40:17;;;;;;;70.38;18.90;;;;;;;;;;6392269;22;20322;-73
2023/12/14 02:42:42;;;;;;;64.55;17.48;;;;;;;;;;6364473;22;20002;-73
2023/12/14 02:45:08;;;;;;;46.08;13.45;;;;;;;;;;6393790;22;20145;-73
2023/12/14 02:47:34;;;;;;;65.03;17.45;;;;;;;;;;6393220;22;20398;-74
2023/12/14 02:49:59;;;;;;;47.05;13.75;;;;;;;;;;6364377;22;20077;-73
2023/12/14 02:52:25;;;;;;;46.80;14.35;;;;;;;;;;6364935;22;20006;-74
2023/12/14 02:54:50;;;;;;;54.22;17.85;;;;;;;;;;6393418;22;20001;-74
2023/12/14 02:57:16;;;;;;;61.42;16.83;;;;;;;;;;6392513;22;20025;-73
2023/12/14 02:59:41;;;;;;;55.65;18.17;;;;;;;;;;6393083;22;20504;-73
2023/12/14 03:02:06;;;;;;;52.08;17.95;;;;;;;;;;6392797;22;20033;-74
2023/12/14 03:04:32;;;;;;;57.00;17.27;;;;;;;;;;6363797;22;20408;-73
2023/12/14 03:07:02;;;;;;;50.30;15.32;;;;;;;;;;6392419;22;20018;-73
2023/12/14 03:09:27;;;;;;;49.50;16.38;;;;;;;;;;6393121;22;20010;-73
2023/12/14 03:11:53;;;;;;;37.60;10.95;;;;;;;;;;6391855;22;20078;-74
2023/12/14 03:14:18;;;;;;;45.88;14.25;;;;;;;;;;6393364;22;20037;-73
2023/12/14 03:16:43;;;;;;;39.20;13.63;;;;;;;;;;6392760;22;20006;-74
2023/12/14 03:19:09;;;;;;;49.60;14.90;;;;;;;;;;6393645;22;20005;-73
2023/12/14 03:21:34;;;;;;;62.53;20.27;;;;;;;;;;6392925;22;20745;-73
2023/12/14 03:23:59;;;;;;;35.08;12.25;;;;;;;;;;6393470;22;20014;-73
2023/12/14 03:26:25;;;;;;;29.10;11.45;;;;;;;;;;6364694;22;20021;-74
2023/12/14 03:28:50;;;;;;;38.00;11.45;;;;;;;;;;6391841;22;20006;-73
2023/12/14 03:31:16;;;;;;;45.17;16.23;;;;;;;;;;6392733;22;20033;-73
2023/12/14 03:33:43;;;;;;;29.65;10.82;;;;;;;;;;6364516;22;20002;-73
2023/12/14 03:36:08;;;;;;;28.35;11.57;;;;;;;;;;6365440;22;20025;-73
2023/12/14 03:38:34;;;;;;;37.90;12.60;;;;;;;;;;6400252;22;20017;-74
2023/12/14 03:40:59;;;;;;;37.70;15.15;;;;;;;;;;6410076;22;20006;-74
2023/12/14 03:43:25;;;;;;;34.25;14.70;;;;;;;;;;6404506;22;20009;-74
2023/12/14 03:45:50;;;;;;;49.80;19.77;;;;;;;;;;6395408;22;19998;-74
2023/12/14 03:48:15;;;;;;;48.50;16.15;;;;;;;;;;6393814;22;20020;-74
2023/12/14 03:50:41;;;;;;;34.90;11.85;;;;;;;;;;6364509;22;20013;-74
2023/12/14 03:53:06;;;;;;;20.77;9.02;;;;;;;;;;6365372;22;20012;-75
2023/12/14 03:55:33;;;;;;;35.45;14.35;;;;;;;;;;6363820;22;20006;-74
2023/12/14 03:57:58;;;;;;;34.78;10.50;;;;;;;;;;6393671;22;20074;-74
2023/12/14 04:00:23;;;;;;;36.13;13.18;;;;;;;;;;6392264;22;20048;-74
2023/12/14 04:02:49;;;;;;;35.88;14.38;;;;;;;;;;6391892;22;20010;-74
2023/12/14 04:05:14;;;;;;;37.03;13.18;;;;;;;;;;6392535;22;20022;-74
2023/12/14 04:07:40;;;;;;;33.13;13.15;;;;;;;;;;6391781;22;20528;-74
2023/12/14 04:10:09;;;;;;;35.35;14.20;;;;;;;;;;6392927;22;20080;-74
2023/12/14 04:12:36;;;;;;;40.40;14.32;;;;;;;;;;6364796;22;19993;-74
2023/12/14 04:15:02;;;;;;;33.85;13.23;;;;;;;;;;6364118;22;20016;-74
2023/12/14 04:17:27;;;;;;;23.55;9.63;;;;;;;;;;6392152;22;20014;-73
2023/12/14 04:19:53;;;;;;;29.60;11.95;;;;;;;;;;6363472;22;20021;-73
2023/12/14 04:22:18;;;;;;;30.73;11.35;;;;;;;;;;6364082;22;20130;-73
2023/12/14 04:24:44;;;;;;;25.30;11.20;;;;;;;;;;6364548;22;20452;-74
2023/12/14 04:27:09;;;;;;;17.90;8.68;;;;;;;;;;6363081;22;20013;-73
2023/12/14 04:29:34;;;;;;;18.88;9.43;;;;;;;;;;6392012;22;20013;-73
2023/12/14 04:32:00;;;;;;;18.80;9.05;;;;;;;;;;6391239;22;20049;-73
2023/12/14 04:34:25;;;;;;;20.35;9.57;;;;;;;;;;6392196;22;20021;-73
2023/12/14 04:36:50;;;;;;;15.73;7.47;;;;;;;;;;6393400;22;20424;-73
2023/12/14 04:39:16;;;;;;;14.98;6.10;;;;;;;;;;6363214;22;20009;-73
2023/12/14 04:41:42;;;;;;;20.05;8.25;;;;;;;;;;6391368;22;20048;-73
2023/12/14 04:44:10;;;;;;;21.02;8.73;;;;;;;;;;6392365;22;20009;-73
2023/12/14 04:46:35;;;;;;;23.50;13.02;;;;;;;;;;6391620;22;20009;-73
2023/12/14 04:49:00;;;;;;;13.73;6.90;;;;;;;;;;6392800;22;19998;-73
2023/12/14 04:51:26;;;;;;;13.95;6.35;;;;;;;;;;6392952;22;20014;-73
2023/12/14 04:53:51;;;;;;;10.75;5.63;;;;;;;;;;6391395;22;20101;-73
2023/12/14 04:56:17;;;;;;;13.38;6.47;;;;;;;;;;6393600;22;20409;-73
2023/12/14 04:58:42;;;;;;;18.13;8.32;;;;;;;;;;6371381;22;20036;-74
2023/12/14 05:01:07;;;;;;;17.05;8.70;;;;;;;;;;6405421;22;20527;-73
2023/12/14 05:03:34;;;;;;;9.98;5.35;;;;;;;;;;6397409;22;20008;-74
2023/12/14 05:06:00;;;;;;;15.05;6.10;;;;;;;;;;6391672;22;20088;-73
2023/12/14 05:08:26;;;;;;;14.05;5.68;;;;;;;;;;6392288;22;20017;-73
2023/12/14 05:10:51;;;;;;;13.20;6.28;;;;;;;;;;6390870;22;20577;-73
2023/12/14 05:13:16;;;;;;;13.52;6.75;;;;;;;;;;6363586;22;19997;-73
2023/12/14 05:15:42;;;;;;;13.63;6.25;;;;;;;;;;6364018;22;20005;-73
2023/12/14 05:18:08;;;;;;;14.18;6.57;;;;;;;;;;6362965;22;20041;-73
2023/12/14 05:20:34;;;;;;;13.02;6.63;;;;;;;;;;6362490;22;20081;-73
2023/12/14 05:22:59;;;;;;;10.32;5.82;;;;;;;;;;6391979;22;20009;-73
2023/12/14 05:25:25;;;;;;;16.60;6.45;;;;;;;;;;6390331;22;20009;-73
2023/12/14 05:27:50;;;;;;;14.55;6.78;;;;;;;;;;6392806;22;20086;-73
2023/12/14 05:30:16;;;;;;;15.15;6.97;;;;;;;;;;6389812;22;20662;-73
2023/12/14 05:32:41;;;;;;;9.52;4.05;;;;;;;;;;6391092;22;20009;-73
2023/12/14 05:35:07;;;;;;;15.07;7.00;;;;;;;;;;6362118;22;20033;-73
2023/12/14 05:37:32;;;;;;;12.75;6.00;;;;;;;;;;6391404;22;20085;-74
2023/12/14 05:39:58;;;;;;;12.30;6.80;;;;;;;;;;6362971;22;20001;-74
2023/12/14 05:42:23;;;;;;;25.00;9.40;;;;;;;;;;6390622;22;20408;-73
2023/12/14 05:44:49;;;;;;;13.93;6.10;;;;;;;;;;6391999;22;20016;-73
2023/12/14 05:47:14;;;;;;;20.02;7.88;;;;;;;;;;6359312;22;20006;-74
2023/12/14 05:49:43;;;;;;;16.15;7.22;;;;;;;;;;6390500;22;20017;-74
2023/12/14 05:52:08;;;;;;;19.42;8.15;;;;;;;;;;6389900;22;20492;-74
2023/12/14 05:54:36;;;;;;;19.38;7.20;;;;;;;;;;6391710;22;20028;-73
2023/12/14 05:57:01;;;;;;;19.17;8.63;;;;;;;;;;6362521;22;20461;-73
2023/12/14 05:59:27;;;;;;;17.25;7.85;;;;;;;;;;6362418;22;20510;-74
2023/12/14 06:01:59;;;;;;;15.93;7.82;;;;;;;;;;6391973;22;20006;-73
2023/12/14 06:04:26;;;;;;;18.13;8.03;;;;;;;;;;6389713;22;20082;-73
2023/12/14 06:06:51;;;;;;;11.57;5.10;;;;;;;;;;6392021;22;20017;-73
2023/12/14 06:09:19;;;;;;;17.40;7.97;;;;;;;;;;6390784;22;20009;-73
2023/12/14 06:11:44;;;;;;;14.13;6.80;;;;;;;;;;6363234;22;20540;-73
2023/12/14 06:14:10;;;;;;;20.50;7.70;;;;;;;;;;6390251;22;20040;-74
2023/12/14 06:16:35;;;;;;;16.65;6.50;;;;;;;;;;6391350;22;20531;-74
2023/12/14 06:19:00;;;;;;;17.20;7.85;;;;;;;;;;6400788;22;20096;-74
2023/12/14 06:21:28;;;;;;;16.80;7.20;;;;;;;;;;6409459;22;20349;-73
2023/12/14 06:23:54;;;;;;;16.27;7.43;;;;;;;;;;6369379;22;20017;-74
2023/12/14 06:26:20;;;;;;;14.63;6.85;;;;;;;;;;6391912;22;20014;-74
2023/12/14 06:28:45;;;;;;;15.85;6.82;;;;;;;;;;6392195;22;20013;-74
2023/12/14 06:31:14;;;;;;;16.98;7.38;;;;;;;;;;6388771;22;20010;-74
2023/12/14 06:33:40;;;;;;;12.90;5.63;;;;;;;;;;6390280;22;20105;-74
2023/12/14 06:36:08;;;;;;;16.15;6.32;;;;;;;;;;6390560;22;20014;-74
2023/12/14 06:38:33;;;;;;;17.80;6.60;;;;;;;;;;6390803;22;20627;-73
2023/12/14 06:40:58;;;;;;;14.95;6.43;;;;;;;;;;6362117;22;20076;-74
2023/12/14 06:43:24;;;;;;;16.15;6.15;;;;;;;;;;6391222;22;20008;-74
2023/12/14 06:45:49;;;;;;;16.25;7.15;;;;;;;;;;6363988;22;20046;-74
2023/12/14 06:48:15;;;;;;;18.65;6.53;;;;;;;;;;6361275;22;20481;-74
2023/12/14 06:50:40;;;;;;;17.60;6.60;;;;;;;;;;6391328;22;20106;-74
2023/12/14 06:53:06;;;;;;;13.07;6.57;;;;;;;;;;6393179;22;20010;-74
2023/12/14 06:55:31;;;;;;;17.80;6.80;;;;;;;;;;6392840;22;20014;-74
2023/12/14 06:57:56;;;;;;;13.82;6.00;;;;;;;;;;6364947;22;20002;-74
2023/12/14 07:00:22;;;;;;;15.77;6.10;;;;;;;;;;6364021;22;20013;-74
2023/12/14 07:02:47;;;;;;;18.17;6.45;;;;;;;;;;6391758;22;20017;-75
2023/12/14 07:05:13;;;;;;;17.65;6.75;;;;;;;;;;6392752;22;20101;-74
2023/12/14 07:07:38;;;;;;;20.38;11.07;;;;;;;;;;6392921;22;20009;-74
2023/12/14 07:10:04;;;;;;;13.25;6.78;;;;;;;;;;6392061;22;19998;-75
2023/12/14 07:12:29;;;;;;;13.52;6.13;;;;;;;;;;6393097;22;19994;-74
2023/12/14 07:14:55;;;;;;;13.20;6.13;;;;;;;;;;6393000;22;20654;-75
2023/12/14 07:17:20;;;;;;;13.57;6.05;;;;;;;;;;6392667;22;20009;-74
2023/12/14 07:19:45;;;;;;;19.20;8.38;;;;;;;;;;6391782;22;20010;-74
2023/12/14 07:22:11;;;;;;;15.65;6.53;;;;;;;;;;6364541;22;20093;-74
2023/12/14 07:24:36;;;;;;;13.43;5.53;;;;;;;;;;6365513;22;19998;-74
2023/12/14 07:27:01;;;;;;;13.80;5.28;;;;;;;;;;6392633;22;20065;-74
2023/12/14 07:29:27;;;;;;;12.20;5.80;;;;;;;;;;6364414;22;20021;-74
2023/12/14 07:31:52;;;;;;;14.77;5.78;;;;;;;;;;6389426;22;20013;-74
2023/12/14 07:34:18;;;;;;;14.70;5.85;;;;;;;;;;6365024;22;19997;-74
2023/12/14 07:36:43;;;;;;;16.20;6.22;;;;;;;;;;6395846;22;19994;-75
2023/12/14 07:39:09;;;;;;;11.90;5.47;;;;;;;;;;6375465;22;20108;-74
2023/12/14 07:41:35;;;;;;;12.98;5.28;;;;;;;;;;6375771;22;20006;-74
2023/12/14 07:44:01;;;;;;;13.80;5.63;;;;;;;;;;6363883;22;19998;-74
2023/12/14 07:46:26;;;;;;;8.77;4.60;;;;;;;;;;6391834;22;20008;-74
2023/12/14 07:48:51;;;;;;;12.73;5.85;;;;;;;;;;6393018;22;20013;-74
2023/12/14 07:51:17;;;;;;;14.77;5.63;;;;;;;;;;6391275;22;20101;-74
2023/12/14 07:53:42;;;;;;;12.68;5.60;;;;;;;;;;6392823;22;20014;-75
2023/12/14 07:56:08;;;;;;;16.83;5.75;;;;;;;;;;6390843;22;20013;-74
2023/12/14 07:58:33;;;;;;;14.52;5.13;;;;;;;;;;6390693;22;20016;-74
2023/12/14 08:00:59;;;;;;;11.48;5.47;;;;;;;;;;6392060;22;20346;-74
2023/12/14 08:03:24;;;;;;;14.35;5.63;;;;;;;;;;6392460;22;20361;-74
2023/12/14 08:05:50;;;;;;;17.08;6.25;;;;;;;;;;6360025;22;20022;-74
2023/12/14 08:08:15;;;;;;;15.15;5.60;;;;;;;;;;6392167;22;20013;-74
2023/12/14 08:10:41;;;;;;;12.52;5.82;;;;;;;;;;6363119;22;20017;-75
2023/12/14 08:13:06;;;;;;;17.85;6.43;;;;;;;;;;6391766;22;20039;-74
2023/12/14 08:15:32;;;;;;;16.27;6.63;;;;;;;;;;6364825;22;20002;-74
2023/12/14 08:17:57;;;;;;;16.45;6.50;;;;;;;;;;6363354;22;20075;-74
2023/12/14 08:20:22;;;;;;;14.88;5.68;;;;;;;;;;6391227;22;20017;-74
2023/12/14 08:22:48;;;;;;;17.40;6.22;;;;;;;;;;6362590;22;20085;-74
2023/12/14 08:25:14;;;;;;;16.67;5.63;;;;;;;;;;6389492;22;20009;-74
2023/12/14 08:27:40;;;;;;;19.98;6.18;;;;;;;;;;6392458;22;19998;-74
2023/12/14 08:30:06;;;;;;;15.48;5.45;;;;;;;;;;6364023;22;20020;-74
2023/12/14 08:32:31;;;;;;;13.35;5.70;;;;;;;;;;6390458;22;20017;-74
2023/12/14 08:34:56;;;;;;;16.85;5.88;;;;;;;;;;6390243;22;20037;-74
2023/12/14 08:37:22;;;;;;;12.90;5.32;;;;;;;;;;6391739;22;19998;-75
2023/12/14 08:39:47;;;;;;;20.38;5.93;;;;;;;;;;6392260;22;20519;-74
2023/12/14 08:42:12;;;;;;;24.42;6.05;;;;;;;;;;6391144;22;20020;-74
2023/12/14 08:44:41;;;;;;;13.82;5.68;;;;;;;;;;6390746;22;20017;-74
2023/12/14 08:47:08;;;;;;;12.55;5.50;;;;;;;;;;6392126;22;20089;-74
2023/12/14 08:49:34;;;;;;;17.95;5.90;;;;;;;;;;6362992;22;20476;-74
2023/12/14 08:51:59;;;;;;;14.32;5.53;;;;;;;;;;6392940;22;20009;-74
2023/12/14 08:54:25;;;;;;;11.65;5.93;;;;;;;;;;6393176;22;20006;-74
2023/12/14 08:56:50;;;;;;;12.27;5.03;;;;;;;;;;6396168;22;20005;-74
2023/12/14 08:59:15;;;;;;;17.05;5.40;;;;;;;;;;6406964;22;20040;-75
2023/12/14 09:01:41;;;;;;;16.73;6.68;;;;;;;;;;6380163;22;20048;-74
2023/12/14 09:04:06;;;;;;;12.10;5.72;;;;;;;;;;6394880;22;19997;-75
2023/12/14 09:06:31;;;;;;;14.50;5.60;;;;;;;;;;6392859;22;20085;-74
2023/12/14 09:08:57;;;;;;;10.27;4.45;;;;;;;;;;6362817;22;20010;-74
2023/12/14 09:11:22;;;;;;;11.57;4.60;;;;;;;;;;6362373;22;20078;-74
2023/12/14 09:13:48;;;;;;;10.80;4.85;;;;;;;;;;6391413;22;20473;-79
2023/12/14 09:16:13;;;;;;;18.77;4.95;;;;;;;;;;6362460;22;20062;-79
2023/12/14 09:18:38;;;;;;;13.75;4.35;;;;;;;;;;6391705;22;20423;-79
2023/12/14 09:21:04;;;;;;;17.38;5.00;;;;;;;;;;6391097;22;20059;-79
2023/12/14 09:23:30;;;;;;;18.52;5.07;;;;;;;;;;6362776;22;20040;-79
2023/12/14 09:25:56;;;;;;;12.65;4.95;;;;;;;;;;6363073;22;20028;-79
2023/12/14 09:28:21;;;;;;;10.95;4.60;;;;;;;;;;6361444;22;20127;-79
2023/12/14 09:30:47;;;;;;;14.50;4.72;;;;;;;;;;6390812;22;19998;-79
2023/12/14 09:33:12;;;;;;;15.40;4.82;;;;;;;;;;6390969;22;20369;-79
2023/12/14 09:35:38;;;;;;;12.10;4.65;;;;;;;;;;6387639;22;20100;-80
2023/12/14 09:38:04;;;;;;;11.57;4.32;;;;;;;;;;6385782;22;20659;-80
2023/12/14 09:40:30;;;;;;;19.20;4.47;;;;;;;;;;6362270;22;20030;-79
2023/12/14 09:42:56;;;;;;;16.30;5.15;;;;;;;;;;6390455;22;20055;-80
2023/12/14 09:45:28;;;;;;;14.32;4.20;;;;;;;;;;6384656;22;20013;-79
2023/12/14 09:47:54;;;;;;;11.10;3.92;;;;;;;;;;6359011;22;20549;-79
2023/12/14 09:50:20;;;;;;;10.82;4.40;;;;;;;;;;6387804;22;20025;-79
2023/12/14 09:52:48;;;;;;;12.18;4.47;;;;;;;;;;6361740;22;20074;-80
2023/12/14 09:55:14;;;;;;;12.18;4.32;;;;;;;;;;6360721;22;20024;-79
2023/12/14 09:57:39;;;;;;;8.80;4.35;;;;;;;;;;6390178;22;20481;-80
2023/12/14 10:00:10;;;;;;;11.40;4.70;;;;;;;;;;6359848;22;20010;-80
2023/12/14 10:02:36;;;;;;;18.50;4.70;;;;;;;;;;6360741;22;20014;-79
2023/12/14 10:05:02;;;;;;;13.80;4.95;;;;;;;;;;6358845;22;20054;-79
2023/12/14 10:07:27;;;;;;;16.85;5.07;;;;;;;;;;6360983;22;20009;-79
2023/12/14 10:09:53;;;;;;;14.45;4.75;;;;;;;;;;6389638;22;20070;-79
2023/12/14 10:12:19;;;;;;;12.77;4.47;;;;;;;;;;6387964;22;20045;-80
2023/12/14 10:14:45;;;;;;;13.05;6.10;;;;;;;;;;6362503;22;20175;-79
2023/12/14 10:17:28;;;;;;;14.82;5.90;;;;;;;;;;6401889;22;20153;-79
2023/12/14 10:19:54;;;;;;;;;;;;;;;;;;6405545;22;20026;-79
2023/12/14 10:22:20;;;;;;;13.48;5.65;;;;;;;;;;6364709;22;19958;-78
2023/12/14 10:24:47;;;;;;;12.65;4.90;;;;;;;;;;6362351;22;20002;-78
2023/12/14 10:27:14;;;;;;;13.57;6.05;;;;;;;;;;6391176;22;20014;-79
2023/12/14 10:29:40;;;;;;;14.52;5.90;;;;;;;;;;6391781;22;20014;-78
2023/12/14 10:32:08;;;;;;;16.35;6.13;;;;;;;;;;6363848;22;20021;-79
2023/12/14 10:34:35;;;;;;;14.23;5.85;;;;;;;;;;6392802;22;20082;-77
2023/12/14 10:37:03;;;;;;;16.17;5.90;;;;;;;;;;6392001;22;20020;-79
2023/12/14 10:39:29;;;;;;;11.30;5.53;;;;;;;;;;6363681;22;20146;-79
2023/12/14 10:41:57;;;;;;;16.15;6.55;;;;;;;;;;6361407;22;20138;-80
2023/12/14 10:44:27;;;;;;;15.55;5.75;;;;;;;;;;6393158;22;20032;-79
2023/12/14 10:46:57;;;;;;;16.75;6.35;;;;;;;;;;6392741;22;20536;-80
2023/12/14 10:49:25;;;;;;;15.48;5.68;;;;;;;;;;6392797;22;20453;-79
2023/12/14 10:51:55;;;;;;;17.50;7.22;;;;;;;;;;6393926;22;20009;-75
2023/12/14 10:54:21;;;;;;;15.15;5.55;;;;;;;;;;6391931;22;20101;-74
2023/12/14 10:56:46;;;;;;;18.23;5.60;;;;;;;;;;6362401;22;20078;-74
2023/12/14 10:59:15;;;;;;;17.73;6.80;;;;;;;;;;6391288;22;20014;-74
2023/12/14 11:01:40;;;;;;;12.35;5.68;;;;;;;;;;6391864;22;20006;-74
2023/12/14 11:04:06;;;;;;;8.15;3.90;;;;;;;;;;6363848;22;20782;-74
2023/12/14 11:06:35;;;;;;;15.13;5.82;;;;;;;;;;6392525;22;20470;-74
2023/12/14 11:09:05;;;;;;;16.15;5.82;;;;;;;;;;6391784;22;20010;-74
2023/12/14 11:11:41;;;;;;;12.95;5.53;;;;;;;;;;6364040;22;20620;-74
2023/12/14 11:14:10;;;;;;;15.70;5.70;;;;;;;;;;6362478;22;20491;-74
2023/12/14 11:16:37;;;;;;;19.60;6.22;;;;;;;;;;6392485;22;20006;-75
2023/12/14 11:19:20;;;;;;;16.65;6.35;;;;;;;;;;6364719;22;20138;-75
2023/12/14 11:21:46;;;;;;;16.73;6.20;;;;;;;;;;6392448;22;20006;-75
2023/12/14 11:24:12;;;;;;;20.42;6.03;;;;;;;;;;6364034;22;20025;-75
2023/12/14 11:26:37;;;;;;;12.63;5.95;;;;;;;;;;6364559;22;20529;-75
2023/12/14 11:29:04;;;;;;;20.40;6.63;;;;;;;;;;6392513;22;20021;-76
2023/12/14 11:31:29;;;;;;;17.85;7.10;;;;;;;;;;6393394;22;20014;-75
2023/12/14 11:33:56;;;;;;;16.88;6.07;;;;;;;;;;6394637;22;19998;-75
2023/12/14 11:36:22;;;;;;;18.98;6.65;;;;;;;;;;6401317;22;20010;-75
2023/12/14 11:38:48;;;;;;;22.35;6.65;;;;;;;;;;6410712;22;20037;-74
2023/12/14 11:41:14;;;;;;;19.30;7.25;;;;;;;;;;6373530;22;20062;-75
2023/12/14 11:43:43;;;;;;;17.50;7.70;;;;;;;;;;6393935;22;20085;-75
2023/12/14 11:46:09;;;;;;;17.83;7.45;;;;;;;;;;6393210;22;19998;-75
2023/12/14 11:48:35;;;;;;;18.52;6.65;;;;;;;;;;6393641;22;19994;-74
2023/12/14 11:51:01;;;;;;;22.25;7.30;;;;;;;;;;6392621;22;20067;-74
2023/12/14 11:53:26;;;;;;;20.00;7.43;;;;;;;;;;6364273;22;20393;-74
2023/12/14 11:55:52;;;;;;;18.08;7.95;;;;;;;;;;6391964;22;20017;-75
2023/12/14 11:58:18;;;;;;;22.95;8.60;;;;;;;;;;6392019;22;20001;-75
2023/12/14 12:00:44;;;;;;;22.35;7.93;;;;;;;;;;6392145;22;19998;-75
2023/12/14 12:03:20;;;;;;;23.27;8.60;;;;;;;;;;6391454;22;20009;-74
2023/12/14 12:05:49;;;;;;;19.42;7.45;;;;;;;;;;6391727;22;20025;-74
2023/12/14 12:08:16;;;;;;;25.33;8.90;;;;;;;;;;6392046;22;20017;-75
2023/12/14 12:10:42;;;;;;;25.17;9.20;;;;;;;;;;6363292;22;20097;-75
2023/12/14 12:13:13;;;;;;;19.38;7.30;;;;;;;;;;6391854;22;20019;-75
2023/12/14 12:15:38;;;;;;;16.52;6.95;;;;;;;;;;6392057;22;20461;-75
2023/12/14 12:18:08;;;;;;;21.98;8.68;;;;;;;;;;6391305;22;20089;-75
2023/12/14 12:20:34;;;;;;;21.25;7.45;;;;;;;;;;6391775;22;20082;-76
2023/12/14 12:23:00;;;;;;;20.98;7.78;;;;;;;;;;6391765;22;20016;-75
2023/12/14 12:25:27;;;;;;;22.70;7.25;;;;;;;;;;6391049;22;20013;-75
2023/12/14 12:27:52;;;;;;;20.83;6.57;;;;;;;;;;6392538;22;20533;-75
2023/12/14 12:30:17;;;;;;;20.25;8.05;;;;;;;;;;6391074;22;20038;-75
2023/12/14 12:32:43;;;;;;;21.58;7.00;;;;;;;;;;6390223;22;20014;-72
2023/12/14 12:35:09;;;;;;;19.33;6.40;;;;;;;;;;6390939;22;20005;-75
2023/12/14 12:37:34;;;;;;;19.30;7.38;;;;;;;;;;6363318;22;20009;-75
2023/12/14 12:40:00;;;;;;;23.92;7.05;;;;;;;;;;6391597;22;20425;-75
2023/12/14 12:42:25;;;;;;;21.90;6.03;;;;;;;;;;6390712;22;20060;-75
2023/12/14 12:44:51;;;;;;;18.48;6.68;;;;;;;;;;6391067;22;20041;-78
2023/12/14 12:47:17;;;;;;;20.92;7.45;;;;;;;;;;6391224;22;20097;-75
2023/12/14 12:49:42;;;;;;;23.77;8.20;;;;;;;;;;6363344;22;20148;-77
2023/12/14 12:52:07;;;;;;;19.50;6.88;;;;;;;;;;6392427;22;20441;-76
2023/12/14 12:54:33;;;;;;;18.95;6.60;;;;;;;;;;6368554;22;20002;-76
2023/12/14 12:56:59;;;;;;;14.52;6.20;;;;;;;;;;6405330;22;20009;-76
2023/12/14 12:59:24;;;;;;;12.98;5.47;;;;;;;;;;6405867;22;20033;-73
2023/12/14 13:01:49;;;;;;;12.32;4.10;;;;;;;;;;6397224;22;20010;-73
2023/12/14 13:04:19;;;;;;;8.55;3.97;;;;;;;;;;6362943;22;20800;-76
2023/12/14 13:06:48;;;;;;;10.40;2.60;;;;;;;;;;6392210;22;20037;-76
2023/12/14 13:09:14;;;;;;;9.70;2.53;;;;;;;;;;6390860;22;20022;-73
2023/12/14 13:11:39;;;;;;;8.25;2.20;;;;;;;;;;6391169;22;20074;-74
2023/12/14 13:14:07;;;;;;;4.63;2.03;;;;;;;;;;6362754;22;20753;-74
2023/12/14 13:16:34;;;;;;;6.07;2.28;;;;;;;;;;6391334;22;20066;-74
2023/12/14 13:18:59;;;;;;;4.03;1.65;;;;;;;;;;6391807;22;20037;-74
2023/12/14 13:21:25;;;;;;;7.57;2.35;;;;;;;;;;6390908;22;20501;-74
2023/12/14 13:23:50;;;;;;;7.88;2.10;;;;;;;;;;6362924;22;20030;-74
2023/12/14 13:26:16;;;;;;;4.25;2.30;;;;;;;;;;6362715;22;20010;-74
2023/12/14 13:28:41;;;;;;;7.95;2.15;;;;;;;;;;6391246;22;20025;-74
2023/12/14 13:31:07;;;;;;;8.38;2.70;;;;;;;;;;6391634;22;20073;-74
2023/12/14 13:33:33;;;;;;;8.95;2.50;;;;;;;;;;6392719;22;20008;-74
2023/12/14 13:35:58;;;;;;;4.85;2.22;;;;;;;;;;6391945;22;20005;-74
2023/12/14 13:38:24;;;;;;;8.32;2.30;;;;;;;;;;6391534;22;20006;-74
2023/12/14 13:40:49;;;;;;;4.10;2.03;;;;;;;;;;6391730;22;20009;-73
2023/12/14 13:43:14;;;;;;;6.43;2.40;;;;;;;;;;6362474;22;20002;-74
2023/12/14 13:45:41;;;;;;;9.45;2.53;;;;;;;;;;6364268;22;20373;-75
2023/12/14 13:48:07;;;;;;;7.63;2.63;;;;;;;;;;6391078;22;20009;-74
2023/12/14 13:50:33;;;;;;;4.40;2.30;;;;;;;;;;6362447;22;20096;-74
2023/12/14 13:52:59;;;;;;;8.55;2.40;;;;;;;;;;6363269;22;20005;-74
2023/12/14 13:55:25;;;;;;;4.70;1.88;;;;;;;;;;6391551;22;20074;-74
2023/12/14 13:57:50;;;;;;;3.75;1.77;;;;;;;;;;6363878;22;20081;-74
2023/12/14 14:00:16;;;;;;;9.88;2.58;;;;;;;;;;6391415;22;20014;-74
2023/12/14 14:02:41;;;;;;;8.90;2.70;;;;;;;;;;6391572;22;20018;-75
2023/12/14 14:05:07;;;;;;;6.20;2.58;;;;;;;;;;6363323;22;20540;-75
2023/12/14 14:07:32;;;;;;;9.00;2.55;;;;;;;;;;6390717;22;20002;-74
2023/12/14 14:09:57;;;;;;;3.20;2.00;;;;;;;;;;6364456;22;20001;-74
2023/12/14 14:12:23;;;;;;;5.15;1.88;;;;;;;;;;6393527;22;20041;-75
2023/12/14 14:14:49;;;;;;;6.78;2.50;;;;;;;;;;6401904;22;20027;-75
2023/12/14 14:17:14;;;;;;;6.65;2.47;;;;;;;;;;6411976;22;20031;-75
2023/12/14 14:19:40;;;;;;;5.13;2.50;;;;;;;;;;6403800;22;20032;-75